createdAt,value
2022-12-13T00:00:05.660Z,21.99
2022-12-13T00:02:32.623Z,22.00
2022-12-13T00:04:59.446Z,21.99
2022-12-13T00:07:26.301Z,21.99
2022-12-13T00:09:53.211Z,21.98
2022-12-13T00:12:20.132Z,21.97
2022-12-13T00:14:47.009Z,21.95
2022-12-13T00:17:13.981Z,21.93
2022-12-13T00:19:40.848Z,21.92
2022-12-13T00:22:09.639Z,21.90
2022-12-13T00:24:40.174Z,21.89
2022-12-13T00:27:09.932Z,21.87
2022-12-13T00:29:36.793Z,21.86
2022-12-13T00:32:03.739Z,21.84
2022-12-13T00:34:30.846Z,21.82
2022-12-13T00:36:59.609Z,21.80
2022-12-13T00:39:26.920Z,21.77
2022-12-13T00:41:53.837Z,21.73
2022-12-13T00:44:20.732Z,21.70
2022-12-13T00:46:47.607Z,21.67
2022-12-13T00:49:14.754Z,21.64
2022-12-13T00:51:41.659Z,21.61
2022-12-13T00:54:08.664Z,21.56
2022-12-13T00:56:37.350Z,21.53
2022-12-13T00:59:04.373Z,21.50
2022-12-13T01:01:32.578Z,21.48
2022-12-13T01:04:01.415Z,21.45
2022-12-13T01:06:29.968Z,21.43
2022-12-13T01:08:57.062Z,21.40
2022-12-13T01:11:24.458Z,21.36
2022-12-13T01:13:51.291Z,21.33
2022-12-13T01:16:18.950Z,21.29
2022-12-13T01:18:46.270Z,21.26
2022-12-13T01:21:15.652Z,21.22
2022-12-13T01:23:43.133Z,21.18
2022-12-13T01:26:11.918Z,21.15
2022-12-13T01:28:39.027Z,21.12
2022-12-13T01:31:08.057Z,21.09
2022-12-13T01:33:35.248Z,21.05
2022-12-13T01:36:03.111Z,21.02
2022-12-13T01:38:29.992Z,20.97
2022-12-13T01:41:00.106Z,20.95
2022-12-13T01:43:30.049Z,20.90
2022-12-13T01:45:56.914Z,20.86
2022-12-13T01:48:26.737Z,20.81
2022-12-13T01:50:55.165Z,20.78
2022-12-13T01:53:23.349Z,20.74
2022-12-13T01:55:53.751Z,20.71
2022-12-13T01:58:20.953Z,20.67
2022-12-13T02:00:48.795Z,20.64
2022-12-13T02:03:21.487Z,20.59
2022-12-13T02:05:54.038Z,20.56
2022-12-13T02:08:22.644Z,20.52
2022-12-13T02:10:49.489Z,20.47
2022-12-13T02:13:16.370Z,20.45
2022-12-13T02:15:43.701Z,20.39
2022-12-13T02:18:18.156Z,20.36
2022-12-13T02:20:53.065Z,20.31
2022-12-13T02:23:22.956Z,20.28
2022-12-13T02:25:52.836Z,20.23
2022-12-13T02:28:30.454Z,20.21
2022-12-13T02:31:07.318Z,20.16
2022-12-13T02:33:35.496Z,20.10
2022-12-13T02:36:02.636Z,20.05
2022-12-13T02:38:32.636Z,20.02
2022-12-13T02:41:02.554Z,19.97
2022-12-13T02:43:35.036Z,19.92
2022-12-13T02:46:03.499Z,19.88
2022-12-13T02:48:32.881Z,19.84
2022-12-13T02:51:01.170Z,19.82
2022-12-13T02:53:28.133Z,19.78
2022-12-13T02:55:55.068Z,19.74
2022-12-13T02:58:27.808Z,19.72
2022-12-13T03:00:57.736Z,19.68
2022-12-13T03:03:24.990Z,19.64
2022-12-13T03:06:03.411Z,19.61
2022-12-13T03:08:33.336Z,19.59
2022-12-13T03:11:05.052Z,19.56
2022-12-13T03:13:38.099Z,19.51
2022-12-13T03:16:09.124Z,19.48
2022-12-13T03:18:37.484Z,19.46
2022-12-13T03:21:05.571Z,19.42
2022-12-13T03:23:32.454Z,19.39
2022-12-13T03:26:01.878Z,19.35
2022-12-13T03:28:28.781Z,19.31
2022-12-13T03:30:55.755Z,19.28
2022-12-13T03:33:23.112Z,19.25
2022-12-13T03:35:50.031Z,19.23
2022-12-13T03:38:21.903Z,19.18
2022-12-13T03:40:51.330Z,19.15
2022-12-13T03:43:22.054Z,19.13
2022-12-13T03:45:50.055Z,19.09
2022-12-13T03:48:21.932Z,19.07
2022-12-13T03:50:50.797Z,19.08
2022-12-13T03:53:22.697Z,19.06
2022-12-13T03:56:01.336Z,18.99
2022-12-13T03:58:36.353Z,18.96
2022-12-13T04:01:06.000Z,18.92
2022-12-13T04:03:32.959Z,18.91
2022-12-13T04:05:59.830Z,18.89
2022-12-13T04:08:26.728Z,18.84
2022-12-13T04:10:53.640Z,18.78
2022-12-13T04:13:23.578Z,18.72
2022-12-13T04:15:50.563Z,18.69
2022-12-13T04:18:17.944Z,18.64
2022-12-13T04:20:45.137Z,18.61
2022-12-13T04:23:11.995Z,18.57
2022-12-13T04:25:39.159Z,18.54
2022-12-13T04:28:06.518Z,18.51
2022-12-13T04:30:33.556Z,18.48
2022-12-13T04:33:00.593Z,18.46
2022-12-13T04:35:27.514Z,18.40
2022-12-13T04:37:54.600Z,18.39
2022-12-13T04:40:22.096Z,18.35
2022-12-13T04:42:54.427Z,18.34
2022-12-13T04:45:22.153Z,18.29
2022-12-13T04:47:49.131Z,18.27
2022-12-13T04:50:15.974Z,18.25
2022-12-13T04:52:42.903Z,18.23
2022-12-13T04:55:09.900Z,18.21
2022-12-13T04:57:36.692Z,18.19
2022-12-13T05:00:04.551Z,18.17
2022-12-13T05:02:31.480Z,18.15
2022-12-13T05:04:58.402Z,18.15
2022-12-13T05:07:26.216Z,18.13
2022-12-13T05:09:53.447Z,18.10
2022-12-13T05:12:22.261Z,18.06
2022-12-13T05:14:50.309Z,18.04
2022-12-13T05:17:17.181Z,18.04
2022-12-13T05:19:44.066Z,18.00
2022-12-13T05:22:19.456Z,18.00
2022-12-13T05:24:47.428Z,17.97
2022-12-13T05:27:23.965Z,17.95
2022-12-13T05:30:02.388Z,17.90
2022-12-13T05:32:43.846Z,17.89
2022-12-13T05:35:14.230Z,17.85
2022-12-13T05:37:53.548Z,17.85
2022-12-13T05:40:22.025Z,17.82
2022-12-13T05:42:48.880Z,17.79
2022-12-13T05:45:17.637Z,17.77
2022-12-13T05:47:45.044Z,17.74
2022-12-13T05:50:12.596Z,17.72
2022-12-13T05:52:39.455Z,17.71
2022-12-13T05:55:06.429Z,17.68
2022-12-13T05:57:34.177Z,17.66
2022-12-13T06:00:01.337Z,17.64
2022-12-13T06:02:28.883Z,17.60
2022-12-13T06:04:55.796Z,17.58
2022-12-13T06:07:22.753Z,17.59
2022-12-13T06:09:49.633Z,17.58
2022-12-13T06:12:32.084Z,17.55
2022-12-13T06:15:01.144Z,17.51
2022-12-13T06:17:32.183Z,17.46
2022-12-13T06:19:59.281Z,17.46
2022-12-13T06:22:26.500Z,17.44
2022-12-13T06:24:53.603Z,17.41
2022-12-13T06:27:21.377Z,17.40
2022-12-13T06:29:48.178Z,17.35
2022-12-13T06:32:15.170Z,17.35
2022-12-13T06:34:42.073Z,17.34
2022-12-13T06:37:11.168Z,17.30
2022-12-13T06:39:37.993Z,17.29
2022-12-13T06:42:06.745Z,17.30
2022-12-13T06:44:34.273Z,17.28
2022-12-13T06:47:10.217Z,17.25
2022-12-13T06:49:39.787Z,17.20
2022-12-13T06:52:08.851Z,17.19
2022-12-13T06:54:35.707Z,17.18
2022-12-13T06:57:02.590Z,17.16
2022-12-13T06:59:29.518Z,17.15
2022-12-13T07:02:03.622Z,17.13
2022-12-13T07:04:31.433Z,17.09
2022-12-13T07:07:01.204Z,17.06
2022-12-13T07:09:31.272Z,17.03
2022-12-13T07:11:58.262Z,17.04
2022-12-13T07:14:25.116Z,16.99
2022-12-13T07:16:52.080Z,16.98
2022-12-13T07:19:24.031Z,16.98
2022-12-13T07:21:52.011Z,16.96
2022-12-13T07:24:19.324Z,16.92
2022-12-13T07:26:46.142Z,16.90
2022-12-13T07:29:12.993Z,16.87
2022-12-13T07:31:49.349Z,16.85
2022-12-13T07:34:16.135Z,16.85
2022-12-13T07:36:43.127Z,16.86
2022-12-13T07:39:09.938Z,16.90
2022-12-13T07:41:36.796Z,16.92
2022-12-13T07:44:03.657Z,16.96
2022-12-13T07:46:33.459Z,17.01
2022-12-13T07:49:03.059Z,17.05
2022-12-13T07:51:30.097Z,17.09
2022-12-13T07:53:57.906Z,17.14
2022-12-13T07:56:24.733Z,17.16
2022-12-13T07:58:51.617Z,17.10
2022-12-13T08:01:18.910Z,17.13
2022-12-13T08:03:48.059Z,17.20
2022-12-13T08:06:15.408Z,17.25
2022-12-13T08:08:42.399Z,17.30
2022-12-13T08:11:11.652Z,17.36
2022-12-13T08:13:39.385Z,17.41
2022-12-13T08:16:27.448Z,17.47
2022-12-13T08:19:02.659Z,17.54
2022-12-13T08:21:55.005Z,17.61
2022-12-13T08:27:02.062Z,17.74
2022-12-13T08:29:34.784Z,17.79
2022-12-13T08:32:04.823Z,17.85
2022-12-13T08:34:32.118Z,17.89
2022-12-13T08:37:01.611Z,17.97
2022-12-13T08:39:34.776Z,18.03
2022-12-13T08:42:16.833Z,18.10
2022-12-13T08:44:46.792Z,18.22
2022-12-13T08:47:24.419Z,18.25
2022-12-13T08:49:54.606Z,18.29
2022-12-13T08:52:22.078Z,18.33
2022-12-13T08:54:48.926Z,18.38
2022-12-13T08:57:16.494Z,18.41
2022-12-13T08:59:43.457Z,18.46
2022-12-13T09:02:14.228Z,18.50
2022-12-13T09:04:41.382Z,18.54
2022-12-13T09:07:08.414Z,18.58
2022-12-13T09:09:35.273Z,18.61
2022-12-13T09:12:10.910Z,18.65
2022-12-13T09:14:45.371Z,18.68
2022-12-13T09:17:14.724Z,18.71
2022-12-13T09:19:51.631Z,18.74
2022-12-13T09:22:33.887Z,18.78
2022-12-13T09:25:02.410Z,18.81
2022-12-13T09:27:31.179Z,18.85
2022-12-13T09:30:08.589Z,18.87
2022-12-13T09:32:38.417Z,18.90
2022-12-13T09:35:05.638Z,18.91
2022-12-13T09:37:32.737Z,18.94
2022-12-13T09:39:59.609Z,18.97
2022-12-13T09:42:45.884Z,19.00
2022-12-13T09:45:22.535Z,19.02
2022-12-13T09:47:51.167Z,19.06
2022-12-13T09:50:25.161Z,19.08
2022-12-13T09:52:52.927Z,19.11
2022-12-13T09:55:30.393Z,19.13
2022-12-13T09:57:58.386Z,19.16
2022-12-13T10:00:28.003Z,19.18
2022-12-13T10:02:58.380Z,19.22
2022-12-13T10:05:37.160Z,19.24
2022-12-13T10:08:11.919Z,19.27
2022-12-13T10:10:39.437Z,19.29
2022-12-13T10:13:12.140Z,19.32
2022-12-13T10:15:41.964Z,19.34
2022-12-13T10:18:11.544Z,19.36
2022-12-13T10:20:40.509Z,19.39
2022-12-13T10:23:33.154Z,19.41
2022-12-13T10:26:03.283Z,19.43
2022-12-13T10:28:32.939Z,19.44
2022-12-13T10:31:01.177Z,19.44
2022-12-13T10:33:33.317Z,19.45
2022-12-13T10:36:10.814Z,19.46
2022-12-13T10:38:39.237Z,19.47
2022-12-13T10:41:15.817Z,19.47
2022-12-13T10:43:43.002Z,19.47
2022-12-13T10:46:18.745Z,19.47
2022-12-13T10:48:52.758Z,19.47
2022-12-13T10:51:20.700Z,19.47
2022-12-13T10:53:51.657Z,19.47
2022-12-13T10:56:22.534Z,19.46
2022-12-13T10:58:51.968Z,19.47
2022-12-13T11:01:19.367Z,19.48
2022-12-13T11:03:57.472Z,19.48
2022-12-13T11:06:40.405Z,19.48
2022-12-13T11:09:22.954Z,19.51
2022-12-13T11:11:58.162Z,19.53
2022-12-13T11:14:31.722Z,19.54
2022-12-13T11:17:06.204Z,19.57
2022-12-13T11:19:37.169Z,19.57
2022-12-13T11:22:04.604Z,19.60
2022-12-13T11:24:34.256Z,19.62
2022-12-13T11:27:05.224Z,19.65
2022-12-13T11:29:42.793Z,19.66
2022-12-13T11:32:22.311Z,19.68
2022-12-13T11:34:50.366Z,19.72
2022-12-13T11:37:27.044Z,19.73
2022-12-13T11:40:01.431Z,19.75
2022-12-13T11:42:29.242Z,19.77
2022-12-13T11:44:59.005Z,19.80
2022-12-13T11:47:29.953Z,19.80
2022-12-13T11:49:57.338Z,19.84
2022-12-13T11:52:36.045Z,19.85
2022-12-13T11:55:07.457Z,19.88
2022-12-13T11:57:44.378Z,19.89
2022-12-13T12:00:13.257Z,19.91
2022-12-13T12:02:43.312Z,19.93
2022-12-13T12:05:21.544Z,19.94
2022-12-13T12:08:21.053Z,19.95
2022-12-13T12:10:49.054Z,19.95
2022-12-13T12:13:27.336Z,19.95
2022-12-13T12:15:55.149Z,19.95
2022-12-13T12:18:22.594Z,19.94
2022-12-13T12:21:04.197Z,19.94
2022-12-13T12:23:46.424Z,19.93
2022-12-13T12:26:18.398Z,19.91
2022-12-13T12:28:54.660Z,19.90
2022-12-13T12:31:30.922Z,19.88
2022-12-13T12:34:07.904Z,19.85
2022-12-13T12:36:45.848Z,19.84
2022-12-13T12:39:26.242Z,19.82
2022-12-13T12:42:08.179Z,19.79
2022-12-13T12:44:42.549Z,19.79
2022-12-13T12:47:46.338Z,19.76
2022-12-13T12:50:15.919Z,19.74
2022-12-13T12:52:51.729Z,19.72
2022-12-13T12:55:33.759Z,19.70
2022-12-13T12:58:01.759Z,19.68
2022-12-13T13:00:31.210Z,19.64
2022-12-13T13:03:05.243Z,19.61
2022-12-13T13:05:41.362Z,19.59
2022-12-13T13:08:12.417Z,19.56
2022-12-13T13:10:41.239Z,19.52
2022-12-13T13:13:32.853Z,19.48
2022-12-13T13:16:02.321Z,19.44
2022-12-13T13:18:38.664Z,19.42
2022-12-13T13:21:25.959Z,19.37
2022-12-13T13:24:02.885Z,19.33
2022-12-13T13:26:35.839Z,19.28
2022-12-13T13:29:12.844Z,19.25
2022-12-13T13:31:49.657Z,19.21
2022-12-13T13:34:27.650Z,19.17
2022-12-13T13:36:57.047Z,19.12
2022-12-13T13:39:27.565Z,19.08
2022-12-13T13:41:57.197Z,19.05
2022-12-13T13:44:28.937Z,19.02
2022-12-13T13:47:05.662Z,19.00
2022-12-13T13:49:32.673Z,18.96
2022-12-13T13:52:26.944Z,18.93
2022-12-13T13:55:03.666Z,18.89
2022-12-13T13:58:07.539Z,18.86
2022-12-13T14:00:22.217Z,18.81
2022-12-13T14:02:58.703Z,18.79
2022-12-13T14:05:34.704Z,18.75
2022-12-13T14:08:02.960Z,18.71
2022-12-13T14:10:37.573Z,18.69
2022-12-13T14:13:20.445Z,18.65
2022-12-13T14:15:49.817Z,18.62
2022-12-13T14:18:33.772Z,18.60
2022-12-13T14:21:13.118Z,18.56
2022-12-13T14:23:49.720Z,18.52
2022-12-13T14:26:22.699Z,18.50
2022-12-13T14:28:53.437Z,18.46
2022-12-13T14:31:23.691Z,18.43
2022-12-13T14:33:52.486Z,18.39
2022-12-13T14:36:26.177Z,18.37
2022-12-13T14:38:59.905Z,18.33
2022-12-13T14:41:26.797Z,18.31
2022-12-13T14:43:53.719Z,18.29
2022-12-13T14:46:20.597Z,18.27
2022-12-13T14:48:49.443Z,18.23
2022-12-13T14:51:25.826Z,18.20
2022-12-13T14:53:53.398Z,18.17
2022-12-13T14:56:28.312Z,18.15
2022-12-13T14:58:58.650Z,18.12
2022-12-13T15:01:29.280Z,18.10
2022-12-13T15:04:16.048Z,18.06
2022-12-13T15:06:48.300Z,18.02
2022-12-13T15:09:16.604Z,17.98
2022-12-13T15:11:50.980Z,17.96
2022-12-13T15:14:21.977Z,17.94
2022-12-13T15:16:50.475Z,17.93
2022-12-13T15:19:29.502Z,17.92
2022-12-13T15:22:02.205Z,17.95
2022-12-13T15:24:32.445Z,17.97
2022-12-13T15:27:00.600Z,17.98
2022-12-13T15:29:30.033Z,18.00
2022-12-13T15:31:57.760Z,18.03
2022-12-13T15:34:29.537Z,18.07
2022-12-13T15:37:01.875Z,18.11
2022-12-13T15:39:29.498Z,18.14
2022-12-13T15:41:57.396Z,18.17
2022-12-13T15:44:27.600Z,18.19
2022-12-13T15:46:59.161Z,18.24
2022-12-13T15:49:35.878Z,18.27
2022-12-13T15:52:03.023Z,18.30
2022-12-13T15:54:30.476Z,18.34
2022-12-13T15:57:00.964Z,18.38
2022-12-13T15:59:29.655Z,18.42
2022-12-13T16:01:58.651Z,18.46
2022-12-13T16:04:28.795Z,18.49
2022-12-13T16:06:56.077Z,18.52
2022-12-13T16:09:24.778Z,18.55
2022-12-13T16:11:53.751Z,18.60
2022-12-13T16:14:31.787Z,18.63
2022-12-13T16:17:00.910Z,18.66
2022-12-13T16:19:35.313Z,18.72
2022-12-13T16:22:02.511Z,18.74
2022-12-13T16:24:36.219Z,18.78
2022-12-13T16:27:08.348Z,18.82
2022-12-13T16:29:37.339Z,18.85
2022-12-13T16:32:08.312Z,18.87
2022-12-13T16:34:36.222Z,18.90
2022-12-13T16:37:03.378Z,18.92
2022-12-13T16:39:35.818Z,18.94
2022-12-13T16:42:03.559Z,18.95
2022-12-13T16:44:35.373Z,18.99
2022-12-13T16:47:14.646Z,18.98
2022-12-13T16:49:47.404Z,19.01
2022-12-13T16:52:14.437Z,19.01
2022-12-13T16:54:41.354Z,19.01
2022-12-13T16:57:09.356Z,19.02
2022-12-13T16:59:36.484Z,19.02
2022-12-13T17:02:03.554Z,19.02
2022-12-13T17:04:30.438Z,19.02
2022-12-13T17:06:57.358Z,19.02
2022-12-13T17:09:25.669Z,19.01
2022-12-13T17:11:52.783Z,19.01
2022-12-13T17:14:19.676Z,19.00
2022-12-13T17:16:46.661Z,18.99
2022-12-13T17:19:15.925Z,18.99
2022-12-13T17:21:42.902Z,18.97
2022-12-13T17:24:10.590Z,18.96
2022-12-13T17:26:37.604Z,18.94
2022-12-13T17:29:05.346Z,18.94
2022-12-13T17:31:36.139Z,18.94
2022-12-13T17:34:04.008Z,18.96
2022-12-13T17:36:32.117Z,19.04
2022-12-13T17:38:59.330Z,19.06
2022-12-13T17:41:26.623Z,19.08
2022-12-13T17:43:53.564Z,19.08
2022-12-13T17:46:20.534Z,19.10
2022-12-13T17:48:47.593Z,19.17
2022-12-13T17:51:15.216Z,19.20
2022-12-13T17:53:42.937Z,19.20
2022-12-13T17:56:12.370Z,19.21
2022-12-13T17:58:40.395Z,19.24
2022-12-13T18:01:16.861Z,19.26
2022-12-13T18:03:43.998Z,19.29
2022-12-13T18:06:11.375Z,19.32
2022-12-13T18:08:39.330Z,19.35
2022-12-13T18:13:55.442Z,19.40
2022-12-13T18:16:23.917Z,19.42
2022-12-13T18:18:55.524Z,19.46
2022-12-13T18:21:22.968Z,19.48
2022-12-13T18:23:54.972Z,19.51
2022-12-13T18:26:23.779Z,19.53
2022-12-13T18:28:50.736Z,19.57
2022-12-13T18:31:19.045Z,19.60
2022-12-13T18:33:47.859Z,19.61
2022-12-13T18:36:15.159Z,19.65
2022-12-13T18:38:43.433Z,19.67
2022-12-13T18:41:12.853Z,19.70
2022-12-13T18:46:11.318Z,19.74
2022-12-13T18:48:38.349Z,19.77
2022-12-13T18:51:07.977Z,19.80
2022-12-13T18:53:35.237Z,19.83
2022-12-13T18:56:02.901Z,19.85
2022-12-13T18:58:30.007Z,19.87
2022-12-13T19:00:57.718Z,19.90
2022-12-13T19:03:26.337Z,19.92
2022-12-13T19:05:56.225Z,19.94
2022-12-13T19:08:26.654Z,19.97
2022-12-13T19:10:54.440Z,19.98
2022-12-13T19:13:23.341Z,20.02
2022-12-13T19:15:51.402Z,20.03
2022-12-13T19:18:18.443Z,20.07
2022-12-13T19:20:47.466Z,20.09
2022-12-13T19:23:14.457Z,20.11
2022-12-13T19:25:41.565Z,20.13
2022-12-13T19:28:10.105Z,20.15
2022-12-13T19:30:37.024Z,20.17
2022-12-13T19:33:04.425Z,20.19
2022-12-13T19:35:31.324Z,20.22
2022-12-13T19:37:58.364Z,20.23
2022-12-13T19:40:25.536Z,20.25
2022-12-13T19:42:52.417Z,20.28
2022-12-13T19:45:19.509Z,20.29
2022-12-13T19:47:48.555Z,20.31
2022-12-13T19:50:17.234Z,20.33
2022-12-13T19:52:44.406Z,20.34
2022-12-13T19:55:11.339Z,20.37
2022-12-13T19:57:38.253Z,20.39
2022-12-13T20:00:06.245Z,20.40
2022-12-13T20:02:33.224Z,20.44
2022-12-13T20:05:00.320Z,20.44
2022-12-13T20:07:27.176Z,20.47
2022-12-13T20:09:54.127Z,20.47
2022-12-13T20:12:21.197Z,20.49
2022-12-13T20:14:48.158Z,20.49
2022-12-13T20:17:15.313Z,20.50
2022-12-13T20:19:42.221Z,20.51
2022-12-13T20:22:09.260Z,20.50
2022-12-13T20:24:36.206Z,20.51
2022-12-13T20:27:03.157Z,20.50
2022-12-13T20:29:30.101Z,20.49
2022-12-13T20:31:57.028Z,20.48
2022-12-13T20:34:23.990Z,20.47
2022-12-13T20:36:50.920Z,20.47
2022-12-13T20:39:17.909Z,20.47
2022-12-13T20:41:44.881Z,20.47
2022-12-13T20:44:13.466Z,20.48
2022-12-13T20:46:40.544Z,20.48
2022-12-13T20:49:09.034Z,20.49
2022-12-13T20:51:36.959Z,20.50
2022-12-13T20:54:05.020Z,20.50
2022-12-13T20:56:36.525Z,20.52
2022-12-13T20:59:05.059Z,20.54
2022-12-13T21:01:33.131Z,20.55
2022-12-13T21:04:01.258Z,20.55
2022-12-13T21:06:30.035Z,20.56
2022-12-13T21:09:02.993Z,20.57
2022-12-13T21:11:32.337Z,20.59
2022-12-13T21:14:05.390Z,20.62
2022-12-13T21:16:38.040Z,20.63
2022-12-13T21:19:05.726Z,20.63
2022-12-13T21:21:34.484Z,20.66
2022-12-13T21:24:03.460Z,20.68
2022-12-13T21:26:35.406Z,20.68
2022-12-13T21:29:04.300Z,20.70
2022-12-13T21:31:39.432Z,20.72
2022-12-13T21:34:07.113Z,20.73
2022-12-13T21:36:35.259Z,20.74
2022-12-13T21:39:03.006Z,20.75
2022-12-13T21:41:30.378Z,20.77
2022-12-13T21:43:57.256Z,20.79
2022-12-13T21:46:35.753Z,20.78
2022-12-13T21:49:08.586Z,20.81
2022-12-13T21:51:35.619Z,20.83
2022-12-13T21:54:02.658Z,20.84
2022-12-13T21:56:40.499Z,20.86
2022-12-13T21:59:22.024Z,20.86
2022-12-13T22:02:08.689Z,20.88
2022-12-13T22:04:36.916Z,20.90
2022-12-13T22:07:04.798Z,20.91
2022-12-13T22:09:31.790Z,20.94
2022-12-13T22:11:58.870Z,20.99
2022-12-13T22:14:25.823Z,20.98
2022-12-13T22:16:52.836Z,20.99
2022-12-13T22:19:20.104Z,21.01
2022-12-13T22:21:49.667Z,21.04
2022-12-13T22:24:17.659Z,21.05
2022-12-13T22:26:44.638Z,21.05
2022-12-13T22:29:12.599Z,21.05
2022-12-13T22:31:40.439Z,21.06
2022-12-13T22:34:07.641Z,21.05
2022-12-13T22:36:34.638Z,21.06
2022-12-13T22:39:02.035Z,21.06
2022-12-13T22:41:28.756Z,21.07
2022-12-13T22:43:55.658Z,21.08
2022-12-13T22:46:22.731Z,21.09
2022-12-13T22:48:52.144Z,21.10
2022-12-13T22:51:19.619Z,21.09
2022-12-13T22:53:47.318Z,21.11
2022-12-13T22:56:17.482Z,21.09
2022-12-13T22:58:45.323Z,21.13
2022-12-13T23:01:12.599Z,21.14
2022-12-13T23:03:40.243Z,21.14
2022-12-13T23:06:08.565Z,21.16
2022-12-13T23:08:40.206Z,21.17
2022-12-13T23:11:20.592Z,21.20
2022-12-13T23:13:51.810Z,21.22
2022-12-13T23:16:19.628Z,21.22
2022-12-13T23:18:47.165Z,21.25
2022-12-13T23:21:14.577Z,21.27
2022-12-13T23:23:41.397Z,21.30
2022-12-13T23:26:09.322Z,21.30
2022-12-13T23:28:36.485Z,21.32
2022-12-13T23:31:03.325Z,21.34
2022-12-13T23:33:30.368Z,21.36
2022-12-13T23:35:57.945Z,21.38
2022-12-13T23:38:25.140Z,21.41
2022-12-13T23:40:52.265Z,21.43
2022-12-13T23:43:19.086Z,21.45
2022-12-13T23:45:45.927Z,21.46
2022-12-13T23:48:12.839Z,21.47
2022-12-13T23:50:39.958Z,21.50
2022-12-13T23:53:06.776Z,21.51
2022-12-13T23:55:36.281Z,21.51
2022-12-13T23:58:03.166Z,21.51
